Time;durP1;ratioP1;P1;durP2;ratioP2;P2;SDS_P1;SDS_P2;PMS_P1;PMS_P2;Temp;Humidity;BMP_temperature;BMP_pressure;BME280_temperature;BME280_humidity;BME280_pressure;Samples;Min_cycle;Max_cycle;Signal;HPM_P1;HPM_P2
2020/12/02 00:01:01;;;;;;;8.37;6.70;;;19.70;47.70;;;;;;5030079;28;20481;-70
2020/12/02 00:03:29;;;;;;;10.30;7.40;;;19.70;47.60;;;;;;5050489;28;20472;-72
2020/12/02 00:05:55;;;;;;;8.70;7.47;;;19.70;47.60;;;;;;5070138;28;20472;-70
2020/12/02 00:08:25;;;;;;;8.13;6.90;;;19.80;47.70;;;;;;5068051;28;20490;-68
2020/12/02 00:10:51;;;;;;;9.37;7.27;;;19.80;47.50;;;;;;5042280;28;20481;-69
2020/12/02 00:13:21;;;;;;;10.20;6.87;;;19.80;47.50;;;;;;5038245;28;22023;-69
2020/12/02 00:15:47;;;;;;;8.53;6.40;;;19.80;47.50;;;;;;5053844;28;20542;-70
2020/12/02 00:18:14;;;;;;;11.03;7.33;;;19.80;47.50;;;;;;5053884;28;20494;-69
2020/12/02 00:20:40;;;;;;;10.17;7.20;;;19.80;47.50;;;;;;5075089;28;20922;-67
2020/12/02 00:23:06;;;;;;;7.80;6.40;;;19.80;47.50;;;;;;5054149;28;20478;-69
2020/12/02 00:25:32;;;;;;;10.67;7.43;;;19.80;47.60;;;;;;5058298;28;20562;-68
2020/12/02 00:28:01;;;;;;;7.53;6.77;;;19.80;47.50;;;;;;5049705;28;20555;-70
2020/12/02 00:30:28;;;;;;;7.83;6.77;;;19.80;47.60;;;;;;5029109;28;20488;-69
2020/12/02 00:32:54;;;;;;;9.50;6.90;;;19.80;47.50;;;;;;5041466;28;21032;-68
2020/12/02 00:35:21;;;;;;;6.53;5.90;;;19.80;47.50;;;;;;5035414;28;20630;-69
2020/12/02 00:37:47;;;;;;;7.97;7.27;;;19.70;47.50;;;;;;5020999;28;20497;-69
2020/12/02 00:40:14;;;;;;;10.27;5.93;;;19.80;47.60;;;;;;5046639;28;20473;-68
2020/12/02 00:42:40;;;;;;;8.17;6.70;;;19.80;48.30;;;;;;5021506;28;20540;-67
2020/12/02 00:45:06;;;;;;;7.80;6.10;;;19.70;47.30;;;;;;5067182;28;20488;-69
2020/12/02 00:47:33;;;;;;;9.80;6.73;;;19.70;47.40;;;;;;5079800;28;20493;-68
2020/12/02 00:49:59;;;;;;;6.57;5.97;;;19.80;47.40;;;;;;5063783;28;21060;-70
2020/12/02 00:52:26;;;;;;;8.00;6.40;;;19.70;47.30;;;;;;5069352;28;20484;-67
2020/12/02 00:54:52;;;;;;;7.60;6.63;;;19.70;47.40;;;;;;5043649;28;20652;-68
2020/12/02 00:57:20;;;;;;;9.00;6.50;;;19.80;47.20;;;;;;5048284;28;20470;-68
2020/12/02 00:59:48;;;;;;;8.33;6.47;;;19.80;47.30;;;;;;5044167;28;20497;-69
2020/12/02 01:02:16;;;;;;;8.13;6.70;;;19.80;47.40;;;;;;5039323;28;20489;-68
2020/12/02 01:04:45;;;;;;;7.60;6.30;;;19.90;47.10;;;;;;5011158;28;21139;-68
2020/12/02 01:07:11;;;;;;;7.73;6.40;;;19.90;47.20;;;;;;5021103;28;20539;-71
2020/12/02 01:09:37;;;;;;;6.00;5.40;;;19.90;47.10;;;;;;5023424;28;20674;-69
2020/12/02 01:12:03;;;;;;;9.40;7.20;;;20.00;47.10;;;;;;5017620;28;20505;-69
2020/12/02 01:14:29;;;;;;;8.13;6.30;;;20.00;47.00;;;;;;5043099;28;20571;-71
2020/12/02 01:16:57;;;;;;;8.57;6.33;;;20.00;46.90;;;;;;5041178;28;20557;-71
2020/12/02 01:19:24;;;;;;;7.90;6.20;;;20.00;46.60;;;;;;5011296;28;21230;-69
2020/12/02 01:21:53;;;;;;;7.97;6.57;;;20.00;46.60;;;;;;5018764;28;20641;-70
2020/12/02 01:24:22;;;;;;;8.07;6.50;;;20.00;46.70;;;;;;5013387;28;20508;-69
2020/12/02 01:26:49;;;;;;;6.33;5.77;;;19.90;46.80;;;;;;5047040;28;20529;-69
2020/12/02 01:29:17;;;;;;;7.13;6.43;;;19.90;47.00;;;;;;5041290;28;20564;-69
2020/12/02 01:31:45;;;;;;;6.60;5.80;;;19.80;46.90;;;;;;5036357;28;21013;-69
2020/12/02 01:34:11;;;;;;;6.90;6.20;;;19.90;47.10;;;;;;5004501;28;20479;-70
2020/12/02 01:36:49;;;;;;;7.63;6.13;;;19.80;47.00;;;;;;5036785;28;21427;-70
2020/12/02 01:39:16;;;;;;;8.20;6.37;;;19.80;47.00;;;;;;4991617;28;21031;-70
2020/12/02 01:41:42;;;;;;;9.07;5.97;;;19.80;46.90;;;;;;5028048;28;20532;-68
2020/12/02 01:44:08;;;;;;;7.10;6.43;;;19.80;46.90;;;;;;5048126;28;20505;-70
2020/12/02 01:46:36;;;;;;;7.33;6.63;;;19.80;47.00;;;;;;5001328;28;20486;-67
2020/12/02 01:49:13;;;;;;;7.17;6.43;;;19.80;46.90;;;;;;5023327;28;20482;-68
2020/12/02 01:51:49;;;;;;;7.73;5.67;;;19.80;46.90;;;;;;5054130;28;20527;-69
2020/12/02 01:54:17;;;;;;;6.27;5.70;;;19.90;47.00;;;;;;5044766;28;21486;-67
2020/12/02 01:56:46;;;;;;;7.07;6.47;;;19.90;46.90;;;;;;5050346;28;20482;-69
2020/12/02 01:59:17;;;;;;;8.30;6.13;;;19.90;46.80;;;;;;5049899;28;21095;-70
2020/12/02 02:01:57;;;;;;;6.93;6.33;;;19.80;46.90;;;;;;5050603;28;20531;-70
2020/12/02 02:04:27;;;;;;;8.93;6.20;;;19.80;46.90;;;;;;5045003;28;20477;-70
2020/12/02 02:07:03;;;;;;;6.70;5.97;;;19.80;46.90;;;;;;5035751;28;20551;-69
2020/12/02 02:09:31;;;;;;;11.73;6.47;;;19.80;47.00;;;;;;5066293;28;20481;-70
2020/12/02 02:12:07;;;;;;;7.20;6.57;;;19.80;47.10;;;;;;5047892;28;20473;-69
2020/12/02 02:14:33;;;;;;;7.27;6.57;;;19.70;47.00;;;;;;5068353;28;20637;-70
2020/12/02 02:16:59;;;;;;;7.40;6.43;;;19.80;47.10;;;;;;5059056;28;20543;-71
2020/12/02 02:19:26;;;;;;;6.77;5.20;;;19.80;47.10;;;;;;5059136;28;20481;-70
2020/12/02 02:21:54;;;;;;;6.33;5.80;;;19.70;47.70;;;;;;5063198;28;20546;-70
2020/12/02 02:24:20;;;;;;;7.47;6.07;;;19.70;47.00;;;;;;5042306;28;20489;-69
2020/12/02 02:26:49;;;;;;;6.40;5.80;;;19.80;47.00;;;;;;5057298;28;20485;-69
2020/12/02 02:29:17;;;;;;;7.73;6.37;;;19.70;46.90;;;;;;5050061;28;21036;-70
2020/12/02 02:31:47;;;;;;;6.40;5.80;;;19.70;46.90;;;;;;5035228;28;20528;-70
2020/12/02 02:34:13;;;;;;;8.60;6.80;;;19.70;46.90;;;;;;5004325;28;20541;-69
2020/12/02 02:36:39;;;;;;;9.00;7.20;;;19.70;46.70;;;;;;5044382;28;21522;-69
2020/12/02 02:39:05;;;;;;;7.03;6.10;;;19.70;46.60;;;;;;5018873;28;20539;-69
2020/12/02 02:41:33;;;;;;;8.40;6.03;;;19.70;46.60;;;;;;5009814;28;20539;-69
2020/12/02 02:43:59;;;;;;;8.67;6.90;;;19.70;46.60;;;;;;4994111;28;20567;-69
2020/12/02 02:46:25;;;;;;;7.33;6.47;;;19.80;46.60;;;;;;5056840;28;20477;-70
2020/12/02 02:48:52;;;;;;;8.63;7.00;;;19.80;46.60;;;;;;5048264;28;20478;-72
2020/12/02 02:51:18;;;;;;;8.83;6.60;;;19.80;46.60;;;;;;5044753;28;21124;-70
2020/12/02 02:53:44;;;;;;;7.70;6.50;;;19.80;46.60;;;;;;5023549;28;20536;-71
2020/12/02 02:56:11;;;;;;;9.80;6.37;;;19.70;46.60;;;;;;4991877;28;20946;-70
2020/12/02 02:58:37;;;;;;;7.10;6.13;;;19.80;46.60;;;;;;5018155;28;20473;-70
2020/12/02 03:01:04;;;;;;;8.20;6.77;;;19.70;46.70;;;;;;5040762;28;21161;-68
2020/12/02 03:03:31;;;;;;;7.30;6.33;;;19.70;46.70;;;;;;5007333;28;20553;-68
2020/12/02 03:05:57;;;;;;;8.80;6.70;;;19.70;46.80;;;;;;5047071;28;20551;-69
2020/12/02 03:08:23;;;;;;;6.90;6.20;;;19.70;46.70;;;;;;4979961;28;20495;-71
2020/12/02 03:10:49;;;;;;;7.63;6.70;;;19.70;46.80;;;;;;5011286;28;20531;-71
2020/12/02 03:13:25;;;;;;;9.00;6.97;;;19.70;46.70;;;;;;5018363;28;20481;-71
2020/12/02 03:15:52;;;;;;;6.10;5.50;;;19.70;46.80;;;;;;5063909;28;20989;-70
2020/12/02 03:18:18;;;;;;;7.57;6.60;;;19.70;46.80;;;;;;5055273;28;20551;-70
2020/12/02 03:20:47;;;;;;;7.60;6.90;;;19.70;46.80;;;;;;5045253;28;21389;-67
2020/12/02 03:23:13;;;;;;;6.30;5.70;;;19.70;46.80;;;;;;5063120;28;20530;-69
2020/12/02 03:25:40;;;;;;;9.10;5.83;;;19.70;46.80;;;;;;5051457;28;20493;-68
2020/12/02 03:28:06;;;;;;;7.33;6.63;;;19.70;46.80;;;;;;5065880;28;21484;-71
2020/12/02 03:30:32;;;;;;;8.27;6.00;;;19.70;46.80;;;;;;5047677;28;20486;-68
2020/12/02 03:32:58;;;;;;;6.03;5.53;;;19.70;46.80;;;;;;5048014;28;20519;-67
2020/12/02 03:35:26;;;;;;;6.93;6.03;;;19.60;46.50;;;;;;5046416;28;20481;-69
2020/12/02 03:37:52;;;;;;;6.60;5.90;;;19.70;46.70;;;;;;5066811;28;21128;-69
2020/12/02 03:40:18;;;;;;;7.47;5.87;;;19.70;46.40;;;;;;5046556;28;20569;-68
2020/12/02 03:42:44;;;;;;;8.17;5.80;;;19.70;46.50;;;;;;5061421;28;20473;-69
2020/12/02 03:45:11;;;;;;;6.80;5.60;;;19.70;46.50;;;;;;5054560;28;20485;-70
2020/12/02 03:47:37;;;;;;;6.40;5.77;;;19.70;46.50;;;;;;5067464;28;20489;-67
2020/12/02 03:50:03;;;;;;;6.67;6.03;;;19.70;46.50;;;;;;5051024;28;20516;-68
2020/12/02 03:52:30;;;;;;;6.50;5.80;;;19.80;46.40;;;;;;5045709;28;20497;-69
2020/12/02 03:54:56;;;;;;;6.23;5.73;;;19.80;46.40;;;;;;5055322;28;20593;-71
2020/12/02 03:57:22;;;;;;;10.27;6.17;;;19.80;46.40;;;;;;5072685;28;20538;-70
2020/12/02 03:59:48;;;;;;;6.90;6.30;;;19.80;46.40;;;;;;5062632;28;20477;-72
2020/12/02 04:02:14;;;;;;;10.17;5.90;;;19.70;46.40;;;;;;5062248;28;20489;-71
2020/12/02 04:04:40;;;;;;;8.00;6.27;;;19.70;46.40;;;;;;5066637;28;20617;-69
2020/12/02 04:07:06;;;;;;;6.30;5.60;;;19.80;46.40;;;;;;5051736;28;20511;-69
2020/12/02 04:09:33;;;;;;;6.90;6.20;;;19.80;46.50;;;;;;5075536;28;20492;-69
2020/12/02 04:11:59;;;;;;;6.83;6.13;;;19.80;46.40;;;;;;5055720;28;20991;-71
2020/12/02 04:14:26;;;;;;;6.83;6.23;;;19.80;46.40;;;;;;5076801;28;20488;-72
2020/12/02 04:16:52;;;;;;;7.90;6.10;;;19.90;46.40;;;;;;5070562;28;20494;-68
2020/12/02 04:19:18;;;;;;;6.53;5.70;;;19.90;46.20;;;;;;5054196;27;20545;-69
2020/12/02 04:21:44;;;;;;;6.33;5.67;;;19.80;46.10;;;;;;5050912;28;20531;-69
2020/12/02 04:24:10;;;;;;;7.47;6.63;;;19.90;46.00;;;;;;5036361;28;20495;-67
2020/12/02 04:26:37;;;;;;;8.13;7.27;;;19.90;45.90;;;;;;5035442;28;20488;-70
2020/12/02 04:29:03;;;;;;;7.90;6.60;;;19.90;45.80;;;;;;5035516;28;20497;-69
2020/12/02 04:31:30;;;;;;;7.93;5.93;;;19.90;45.90;;;;;;5028615;28;20501;-69
2020/12/02 04:33:56;;;;;;;7.30;6.67;;;19.80;45.90;;;;;;5009039;28;20494;-71
2020/12/02 04:36:22;;;;;;;7.13;6.53;;;19.80;45.90;;;;;;5036563;28;21330;-69
2020/12/02 04:38:48;;;;;;;7.00;6.30;;;19.80;46.10;;;;;;5046094;28;20563;-69
2020/12/02 04:41:15;;;;;;;6.97;6.37;;;19.90;45.80;;;;;;5039535;28;20492;-69
2020/12/02 04:43:43;;;;;;;7.77;6.13;;;19.90;45.70;;;;;;5041140;28;21449;-69
2020/12/02 04:46:13;;;;;;;7.90;6.40;;;19.90;45.50;;;;;;5045799;28;20486;-70
2020/12/02 04:48:40;;;;;;;6.37;5.77;;;19.80;45.70;;;;;;5033154;28;20519;-69
2020/12/02 04:51:11;;;;;;;7.40;6.63;;;19.80;45.70;;;;;;5044348;28;20493;-70
2020/12/02 04:53:40;;;;;;;8.57;6.93;;;19.90;45.90;;;;;;5028506;28;20555;-68
2020/12/02 04:56:06;;;;;;;6.67;6.00;;;19.90;45.90;;;;;;5053346;28;20993;-70
2020/12/02 04:58:32;;;;;;;7.53;6.67;;;19.90;46.00;;;;;;5038873;28;20567;-69
2020/12/02 05:01:17;;;;;;;6.93;5.30;;;19.80;46.00;;;;;;5031208;28;20523;-73
2020/12/02 05:03:51;;;;;;;8.57;6.63;;;19.80;46.00;;;;;;5031756;28;20498;-69
2020/12/02 05:06:25;;;;;;;5.60;5.10;;;19.80;46.00;;;;;;5060330;28;20477;-69
2020/12/02 05:08:52;;;;;;;7.63;6.53;;;19.80;46.10;;;;;;5058610;28;20485;-70
2020/12/02 05:11:18;;;;;;;7.73;6.93;;;19.80;46.10;;;;;;5068365;28;20485;-70
2020/12/02 05:13:58;;;;;;;8.67;6.57;;;19.80;46.20;;;;;;5031162;28;21037;-70
2020/12/02 05:16:25;;;;;;;7.23;6.07;;;19.70;46.00;;;;;;5035529;28;20493;-68
2020/12/02 05:18:57;;;;;;;8.10;6.30;;;19.70;45.80;;;;;;5057251;28;20551;-70
2020/12/02 05:21:23;;;;;;;7.60;6.83;;;19.80;45.70;;;;;;5039481;28;21013;-71
2020/12/02 05:24:08;;;;;;;7.83;5.80;;;19.80;45.60;;;;;;5068836;28;20477;-68
2020/12/02 05:26:35;;;;;;;5.50;5.00;;;19.80;45.50;;;;;;5072646;27;20511;-68
2020/12/02 05:29:04;;;;;;;7.60;7.00;;;19.80;45.40;;;;;;5068636;28;20900;-68
2020/12/02 05:31:32;;;;;;;8.03;5.30;;;19.80;45.40;;;;;;5060210;28;20485;-68
2020/12/02 05:34:06;;;;;;;8.57;6.57;;;19.80;45.30;;;;;;5066236;28;20543;-68
2020/12/02 05:36:33;;;;;;;10.27;7.00;;;19.90;45.30;;;;;;5067030;28;20550;-69
2020/12/02 05:39:02;;;;;;;10.77;7.50;;;19.90;45.20;;;;;;5059535;27;20488;-69
2020/12/02 05:41:28;;;;;;;7.43;6.70;;;19.90;45.20;;;;;;5048806;28;21558;-70
2020/12/02 05:43:56;;;;;;;6.57;5.87;;;19.80;45.30;;;;;;5062260;28;20538;-73
2020/12/02 05:46:24;;;;;;;8.43;6.20;;;19.80;45.50;;;;;;5058629;28;20543;-69
2020/12/02 05:48:57;;;;;;;6.37;5.73;;;19.80;45.50;;;;;;5049576;27;23193;-71
2020/12/02 05:51:23;;;;;;;9.57;7.03;;;19.80;45.60;;;;;;5069945;28;20487;-68
2020/12/02 05:53:52;;;;;;;6.40;5.80;;;19.70;45.60;;;;;;5058618;28;20485;-70
2020/12/02 05:56:18;;;;;;;8.60;6.20;;;19.80;45.50;;;;;;5069638;28;21224;-68
2020/12/02 05:58:45;;;;;;;6.57;5.97;;;19.90;45.50;;;;;;5043302;27;21337;-70
2020/12/02 06:01:13;;;;;;;7.90;7.07;;;19.80;45.40;;;;;;5064090;28;20475;-69
2020/12/02 06:03:39;;;;;;;7.53;6.73;;;19.80;45.20;;;;;;5057947;27;20488;-68
2020/12/02 06:06:06;;;;;;;7.03;6.43;;;19.80;45.20;;;;;;5071015;27;20480;-68
2020/12/02 06:08:35;;;;;;;8.30;7.43;;;19.80;45.30;;;;;;5069223;28;21184;-68
2020/12/02 06:11:27;;;;;;;13.33;7.80;;;19.90;45.10;;;;;;5059127;28;20548;-69
2020/12/02 06:13:54;;;;;;;14.00;9.07;;;19.80;44.70;;;;;;5038325;28;20484;-68
2020/12/02 06:16:30;;;;;;;11.53;8.40;;;19.80;45.30;;;;;;5036133;28;21020;-69
2020/12/02 06:18:56;;;;;;;15.00;9.27;;;19.90;45.80;;;;;;5026921;28;20506;-70
2020/12/02 06:21:32;;;;;;;11.90;9.00;;;19.90;44.90;;;;;;5017508;28;21104;-68
2020/12/02 06:23:58;;;;;;;10.70;8.83;;;19.90;45.60;;;;;;5026829;28;20489;-70
2020/12/02 06:26:33;;;;;;;12.20;9.13;;;19.80;45.10;;;;;;5034626;28;20498;-71
2020/12/02 06:28:59;;;;;;;8.30;7.17;;;19.80;45.10;;;;;;5040680;28;20482;-68
2020/12/02 06:31:27;;;;;;;11.30;9.30;;;19.80;44.80;;;;;;5010837;28;20479;-69
2020/12/02 06:33:53;;;;;;;13.90;8.40;;;19.80;44.60;;;;;;5040863;28;21024;-70
2020/12/02 06:36:22;;;;;;;11.07;8.50;;;19.80;44.60;;;;;;5037416;28;20495;-70
2020/12/02 06:38:50;;;;;;;13.13;9.40;;;19.80;44.40;;;;;;5033623;28;20481;-68
2020/12/02 06:41:35;;;;;;;10.07;8.87;;;19.80;44.30;;;;;;5038740;28;20499;-70
2020/12/02 06:44:24;;;;;;;13.40;9.87;;;19.80;44.30;;;;;;4973323;28;20902;-69
2020/12/02 06:47:13;;;;;;;16.27;9.10;;;19.80;44.40;;;;;;5023717;28;21298;-68
2020/12/02 06:49:39;;;;;;;9.30;7.40;;;19.80;44.60;;;;;;5040194;28;20981;-68
2020/12/02 06:52:06;;;;;;;8.93;7.73;;;19.80;44.70;;;;;;5065786;28;20488;-68
2020/12/02 06:54:36;;;;;;;9.37;7.80;;;19.90;44.80;;;;;;5066784;28;21088;-68
2020/12/02 06:57:07;;;;;;;8.53;7.67;;;19.90;44.70;;;;;;5063352;28;20501;-69
2020/12/02 06:59:47;;;;;;;8.07;6.27;;;20.00;44.70;;;;;;5055067;28;20896;-69
2020/12/02 07:02:13;;;;;;;7.60;6.57;;;20.00;45.00;;;;;;5062407;28;20542;-68
2020/12/02 07:04:39;;;;;;;7.10;6.40;;;20.00;44.90;;;;;;5056188;28;21113;-70
2020/12/02 07:07:05;;;;;;;9.53;5.70;;;19.90;44.90;;;;;;5068414;28;20472;-69
2020/12/02 07:09:33;;;;;;;6.77;6.17;;;19.90;45.90;;;;;;5057258;28;20495;-69
2020/12/02 07:12:00;;;;;;;5.97;5.43;;;19.90;45.10;;;;;;5065017;28;20770;-68
2020/12/02 07:14:30;;;;;;;6.73;6.13;;;19.90;45.40;;;;;;5065326;28;20481;-69
2020/12/02 07:16:57;;;;;;;8.00;6.03;;;19.90;45.60;;;;;;5065712;28;20481;-71
2020/12/02 07:19:25;;;;;;;7.27;6.60;;;19.80;45.50;;;;;;5057691;28;20618;-69
2020/12/02 07:21:52;;;;;;;5.73;5.20;;;19.80;45.60;;;;;;5014617;28;21022;-69
2020/12/02 07:24:20;;;;;;;5.93;5.33;;;19.80;45.70;;;;;;5060693;28;20542;-70
2020/12/02 07:26:48;;;;;;;7.00;5.70;;;19.80;45.90;;;;;;5067974;28;20554;-69
2020/12/02 07:29:15;;;;;;;6.90;6.30;;;19.80;45.90;;;;;;5056313;28;20477;-69
2020/12/02 07:31:41;;;;;;;6.40;5.80;;;19.80;45.90;;;;;;5015092;28;20485;-70
2020/12/02 07:34:12;;;;;;;6.10;5.60;;;19.90;46.00;;;;;;5054879;28;20549;-69
2020/12/02 07:36:38;;;;;;;6.07;5.00;;;19.90;45.90;;;;;;5058410;28;20496;-70
2020/12/02 07:39:09;;;;;;;7.40;5.80;;;20.00;45.90;;;;;;5065956;28;20500;-68
2020/12/02 07:41:35;;;;;;;6.23;5.70;;;20.00;45.80;;;;;;5069248;28;20477;-69
2020/12/02 07:44:02;;;;;;;5.43;5.03;;;20.00;45.70;;;;;;5064858;28;20492;-69
2020/12/02 07:46:28;;;;;;;5.33;5.00;;;20.00;45.90;;;;;;5066394;28;20498;-70
2020/12/02 07:48:56;;;;;;;5.60;5.10;;;19.90;45.90;;;;;;5048266;28;20482;-69
2020/12/02 07:51:24;;;;;;;5.87;5.37;;;19.90;46.00;;;;;;5023727;28;21030;-69
2020/12/02 07:53:54;;;;;;;5.50;5.00;;;19.90;46.10;;;;;;5032121;28;21040;-68
2020/12/02 07:56:23;;;;;;;6.83;5.80;;;19.90;46.20;;;;;;5051602;28;20486;-69
2020/12/02 07:58:49;;;;;;;6.17;4.90;;;19.90;46.20;;;;;;5050532;28;20489;-68
2020/12/02 08:01:31;;;;;;;5.33;4.93;;;19.90;46.20;;;;;;5038309;28;20501;-69
2020/12/02 08:04:02;;;;;;;5.33;4.87;;;19.90;46.30;;;;;;5038319;28;20559;-69
2020/12/02 08:06:30;;;;;;;10.50;5.80;;;19.90;46.40;;;;;;5030180;28;20909;-69
2020/12/02 08:08:56;;;;;;;5.33;4.97;;;19.80;46.30;;;;;;5020373;28;21166;-71
2020/12/02 08:11:22;;;;;;;5.80;4.57;;;19.80;46.30;;;;;;5044855;28;20482;-70
2020/12/02 08:13:50;;;;;;;5.93;5.53;;;19.80;46.30;;;;;;5019303;28;20694;-69
2020/12/02 08:16:23;;;;;;;5.80;5.30;;;19.80;46.30;;;;;;5012072;28;20482;-69
2020/12/02 08:18:51;;;;;;;5.17;4.87;;;19.90;46.40;;;;;;5011171;28;20562;-69
2020/12/02 08:21:18;;;;;;;6.87;5.03;;;19.80;46.40;;;;;;5044853;28;20539;-69
2020/12/02 08:24:03;;;;;;;5.13;4.73;;;19.80;46.40;;;;;;5035067;28;20487;-69
2020/12/02 08:26:30;;;;;;;4.87;4.40;;;19.90;46.50;;;;;;5031474;28;20556;-70
2020/12/02 08:29:01;;;;;;;7.17;6.30;;;19.80;46.30;;;;;;5037372;28;20478;-69
2020/12/02 08:31:28;;;;;;;5.40;4.90;;;19.90;47.00;;;;;;5045619;28;20550;-67
2020/12/02 08:34:10;;;;;;;5.20;4.70;;;20.00;46.10;;;;;;5043956;28;21150;-70
2020/12/02 08:36:37;;;;;;;5.57;5.07;;;20.00;46.20;;;;;;5042785;28;21451;-69
2020/12/02 08:39:03;;;;;;;6.70;5.67;;;20.00;46.20;;;;;;5044932;28;20511;-68
2020/12/02 08:41:38;;;;;;;5.90;5.30;;;19.90;46.10;;;;;;5066039;28;20565;-68
2020/12/02 08:44:07;;;;;;;5.10;4.70;;;20.00;46.20;;;;;;5049420;28;20484;-69
2020/12/02 08:46:40;;;;;;;5.53;5.03;;;20.00;46.20;;;;;;5049425;28;20497;-69
2020/12/02 08:49:06;;;;;;;6.13;5.37;;;20.00;46.20;;;;;;5017241;28;20501;-68
2020/12/02 08:51:32;;;;;;;5.10;4.70;;;20.00;46.20;;;;;;5054837;28;22540;-68
2020/12/02 08:54:09;;;;;;;4.83;4.53;;;20.00;46.30;;;;;;5040979;28;20481;-70
2020/12/02 08:56:36;;;;;;;5.93;5.40;;;20.00;46.10;;;;;;5040568;28;21203;-67
2020/12/02 08:59:02;;;;;;;5.30;4.90;;;20.00;46.10;;;;;;5019688;28;20481;-67
2020/12/02 09:01:28;;;;;;;6.13;5.67;;;20.10;46.00;;;;;;5066684;28;20954;-69
2020/12/02 09:03:55;;;;;;;5.10;4.70;;;20.10;46.10;;;;;;5067093;28;20517;-68
2020/12/02 09:06:21;;;;;;;6.20;5.60;;;20.10;46.20;;;;;;5065290;28;21295;-69
2020/12/02 09:08:47;;;;;;;5.70;5.20;;;20.10;46.20;;;;;;5060045;28;20482;-68
2020/12/02 09:11:22;;;;;;;4.93;4.47;;;20.00;46.10;;;;;;5060096;28;21074;-68
2020/12/02 09:13:49;;;;;;;5.17;4.63;;;20.00;46.10;;;;;;5040818;28;20476;-68
2020/12/02 09:16:20;;;;;;;5.23;4.73;;;20.00;46.20;;;;;;5061156;28;20488;-69
2020/12/02 09:18:46;;;;;;;6.03;5.63;;;20.00;46.20;;;;;;5065934;28;20536;-70
2020/12/02 09:21:12;;;;;;;5.03;4.57;;;20.00;46.20;;;;;;5073227;28;20489;-68
2020/12/02 09:23:38;;;;;;;5.63;5.10;;;20.00;46.20;;;;;;5065088;28;21636;-69
2020/12/02 09:26:04;;;;;;;4.87;4.47;;;20.00;46.30;;;;;;5032011;28;20524;-70
2020/12/02 09:28:30;;;;;;;6.37;4.80;;;20.00;46.30;;;;;;5041925;28;20493;-68
2020/12/02 09:30:57;;;;;;;5.47;5.00;;;20.10;46.30;;;;;;5043730;28;20617;-71
2020/12/02 09:33:23;;;;;;;5.40;5.00;;;20.10;46.20;;;;;;5048289;28;20995;-70
2020/12/02 09:35:49;;;;;;;4.40;4.10;;;20.10;46.20;;;;;;5040354;28;20566;-70
2020/12/02 09:38:17;;;;;;;5.03;4.63;;;20.00;46.20;;;;;;5024852;28;20513;-68
2020/12/02 09:40:43;;;;;;;5.73;5.20;;;20.10;46.20;;;;;;5024362;28;20495;-67
2020/12/02 09:43:33;;;;;;;6.97;5.00;;;20.10;46.20;;;;;;5057653;28;21691;-68
2020/12/02 09:46:03;;;;;;;4.27;4.07;;;20.10;46.10;;;;;;5049400;28;20488;-67
2020/12/02 09:48:29;;;;;;;5.57;5.07;;;20.10;46.00;;;;;;5018402;28;20493;-69
2020/12/02 09:50:55;;;;;;;6.30;4.87;;;20.10;46.00;;;;;;5035803;28;20508;-69
2020/12/02 09:53:23;;;;;;;5.23;4.77;;;20.20;46.10;;;;;;5060365;28;20489;-69
2020/12/02 09:55:49;;;;;;;4.90;4.50;;;20.20;46.10;;;;;;5059651;28;20511;-69
2020/12/02 09:58:15;;;;;;;4.87;4.50;;;20.20;46.10;;;;;;5060431;28;20516;-70
2020/12/02 10:00:41;;;;;;;4.87;4.47;;;20.20;46.10;;;;;;5068555;28;20480;-69
2020/12/02 10:03:34;;;;;;;5.03;4.53;;;20.20;46.10;;;;;;5074121;28;20544;-68
2020/12/02 10:06:22;;;;;;;4.00;3.70;;;20.20;46.20;;;;;;5048223;28;20490;-69
2020/12/02 10:09:02;;;;;;;4.80;4.50;;;20.20;46.30;;;;;;5038665;28;20559;-69
2020/12/02 10:11:32;;;;;;;4.97;4.57;;;20.10;46.20;;;;;;5053577;28;20499;-69
2020/12/02 10:14:09;;;;;;;4.80;4.40;;;20.10;46.20;;;;;;5011460;28;20540;-72
2020/12/02 10:16:37;;;;;;;6.47;5.20;;;20.10;47.10;;;;;;5025144;28;21031;-69
2020/12/02 10:19:20;;;;;;;4.47;4.17;;;20.10;46.20;;;;;;5064932;27;20534;-68
2020/12/02 10:22:07;;;;;;;5.20;4.80;;;20.20;46.20;;;;;;5031068;28;20535;-70
2020/12/02 10:24:42;;;;;;;4.80;4.40;;;20.20;46.30;;;;;;5046489;28;20485;-71
2020/12/02 10:27:18;;;;;;;5.20;4.80;;;20.20;46.10;;;;;;5036935;28;20515;-70
2020/12/02 10:29:53;;;;;;;6.83;4.47;;;20.20;46.10;;;;;;5037056;28;20554;-69
2020/12/02 10:32:29;;;;;;;6.43;4.10;;;20.20;46.10;;;;;;5034433;28;21608;-67
2020/12/02 10:34:55;;;;;;;4.30;4.00;;;20.20;46.30;;;;;;5030245;28;21083;-69
2020/12/02 10:37:23;;;;;;;5.57;4.17;;;20.10;46.40;;;;;;5048012;28;20524;-69
2020/12/02 10:39:49;;;;;;;5.50;5.10;;;20.10;46.50;;;;;;5042703;28;20516;-69
2020/12/02 10:42:36;;;;;;;3.80;3.60;;;20.10;46.50;;;;;;5005587;28;20596;-67
2020/12/02 10:45:09;;;;;;;4.60;4.23;;;20.10;46.50;;;;;;5066032;27;20491;-68
2020/12/02 10:48:04;;;;;;;4.43;3.93;;;20.10;46.50;;;;;;5046798;28;20492;-68
2020/12/02 10:50:32;;;;;;;7.30;4.87;;;20.10;46.50;;;;;;5028808;28;20575;-68
2020/12/02 10:52:59;;;;;;;5.33;5.00;;;20.10;46.40;;;;;;5044077;28;20543;-69
2020/12/02 10:55:27;;;;;;;5.00;4.60;;;20.10;46.40;;;;;;5048552;28;20519;-67
2020/12/02 10:57:57;;;;;;;5.03;4.40;;;20.10;46.40;;;;;;5067527;28;20562;-69
2020/12/02 11:00:23;;;;;;;5.87;5.30;;;20.10;46.50;;;;;;5066545;28;20481;-69
2020/12/02 11:03:03;;;;;;;4.57;4.30;;;20.10;46.40;;;;;;5065576;27;20492;-68
2020/12/02 11:05:29;;;;;;;5.57;5.17;;;20.10;46.40;;;;;;5060058;28;20953;-69
2020/12/02 11:07:58;;;;;;;7.57;5.40;;;20.20;46.40;;;;;;5049829;27;20563;-69
2020/12/02 11:10:27;;;;;;;4.80;4.33;;;20.20;46.30;;;;;;5067759;28;20479;-70
2020/12/02 11:13:20;;;;;;;5.07;4.73;;;20.30;46.40;;;;;;5028859;28;20670;-68
2020/12/02 11:15:51;;;;;;;7.80;4.60;;;20.30;46.10;;;;;;5040017;28;20477;-70
2020/12/02 11:18:41;;;;;;;5.80;5.33;;;20.30;46.00;;;;;;5074765;28;20876;-69
2020/12/02 11:21:12;;;;;;;5.00;4.60;;;20.40;46.00;;;;;;5068619;28;20602;-69
2020/12/02 11:23:50;;;;;;;5.20;4.80;;;20.30;46.00;;;;;;5068143;28;20505;-68
2020/12/02 11:26:22;;;;;;;5.00;4.50;;;20.30;46.10;;;;;;5046250;28;20472;-70
2020/12/02 11:28:48;;;;;;;5.23;4.80;;;20.30;46.20;;;;;;5027718;28;20489;-70
2020/12/02 11:31:25;;;;;;;5.87;5.37;;;20.30;46.30;;;;;;5045780;28;20977;-70
2020/12/02 11:33:56;;;;;;;5.27;4.90;;;20.20;46.30;;;;;;5030459;28;20482;-69
2020/12/02 11:36:31;;;;;;;5.27;4.70;;;20.20;46.40;;;;;;5024801;28;21002;-69
2020/12/02 11:39:09;;;;;;;5.43;5.03;;;20.10;46.40;;;;;;5029609;28;20539;-70
2020/12/02 11:41:39;;;;;;;4.47;4.17;;;20.10;46.60;;;;;;5036613;28;20954;-69
2020/12/02 11:44:09;;;;;;;5.27;4.87;;;20.10;46.70;;;;;;5022051;28;20490;-69
2020/12/02 11:46:35;;;;;;;5.57;4.90;;;20.10;46.60;;;;;;5044277;28;20563;-71
2020/12/02 11:49:06;;;;;;;4.87;4.57;;;20.10;46.50;;;;;;5035598;28;20486;-69
2020/12/02 11:51:36;;;;;;;5.77;4.20;;;20.10;46.50;;;;;;5016154;28;20483;-68
2020/12/02 11:54:03;;;;;;;5.53;4.80;;;20.10;46.50;;;;;;5004825;28;20486;-69
2020/12/02 11:56:32;;;;;;;5.60;5.10;;;20.10;46.50;;;;;;5030028;28;20499;-69
2020/12/02 11:59:01;;;;;;;4.80;4.30;;;20.20;46.60;;;;;;5033129;28;20513;-70
2020/12/02 12:01:47;;;;;;;5.30;4.87;;;20.20;46.50;;;;;;5038595;28;20473;-69
2020/12/02 12:04:21;;;;;;;5.33;5.03;;;20.20;46.60;;;;;;5022581;28;20603;-68
2020/12/02 12:06:48;;;;;;;4.70;4.30;;;20.20;46.60;;;;;;5008956;28;20485;-68
2020/12/02 12:09:16;;;;;;;4.70;4.40;;;20.20;46.60;;;;;;5018311;28;20540;-68
2020/12/02 12:11:43;;;;;;;8.13;4.87;;;20.20;46.60;;;;;;5035383;28;21377;-68
2020/12/02 12:14:17;;;;;;;5.13;4.43;;;20.30;46.50;;;;;;5027007;28;20494;-69
2020/12/02 12:16:49;;;;;;;5.50;5.10;;;20.20;46.40;;;;;;5006381;28;20532;-68
2020/12/02 12:19:20;;;;;;;5.50;5.07;;;20.20;46.40;;;;;;5057386;27;20491;-67
2020/12/02 12:21:53;;;;;;;5.73;5.23;;;20.20;46.50;;;;;;5048942;27;20486;-69
2020/12/02 12:24:19;;;;;;;6.17;4.93;;;20.20;46.50;;;;;;5053911;28;21055;-69
2020/12/02 12:26:48;;;;;;;5.37;4.90;;;20.10;46.70;;;;;;5043753;28;20545;-70
2020/12/02 12:29:14;;;;;;;5.90;5.37;;;20.20;46.60;;;;;;5040069;28;20485;-69
2020/12/02 12:31:43;;;;;;;5.90;5.50;;;20.10;46.70;;;;;;5062499;28;20557;-70
2020/12/02 12:34:24;;;;;;;6.70;4.63;;;20.10;46.70;;;;;;5035484;28;20537;-70
2020/12/02 12:36:51;;;;;;;5.07;4.67;;;20.10;46.70;;;;;;5056344;28;20533;-68
2020/12/02 12:39:21;;;;;;;5.07;4.67;;;20.10;46.70;;;;;;5047483;28;20485;-68
2020/12/02 12:41:50;;;;;;;6.90;5.73;;;20.10;46.70;;;;;;5034188;28;20489;-69
2020/12/02 12:44:20;;;;;;;5.60;5.07;;;20.10;46.70;;;;;;5026762;28;20485;-70
2020/12/02 12:46:56;;;;;;;6.20;5.60;;;20.10;46.70;;;;;;5054143;28;20484;-68
2020/12/02 12:49:22;;;;;;;5.87;5.40;;;20.10;46.70;;;;;;5056203;28;20484;-69
2020/12/02 12:51:49;;;;;;;5.20;4.80;;;20.10;46.70;;;;;;5059954;28;20476;-69
2020/12/02 12:54:16;;;;;;;5.57;5.17;;;20.10;46.70;;;;;;5063689;28;20484;-69
2020/12/02 12:56:42;;;;;;;6.17;5.67;;;20.10;46.70;;;;;;5073253;28;20469;-69